createdAt,value
2018-07-14T00:03:33.181Z,9
2018-07-14T00:13:33.309Z,9
2018-07-14T00:23:33.232Z,10
2018-07-14T00:33:33.270Z,10
2018-07-14T00:43:34.228Z,12
2018-07-14T00:53:33.332Z,12
2018-07-14T01:03:33.323Z,12
2018-07-14T01:13:33.297Z,13
2018-07-14T01:23:33.195Z,13
2018-07-14T01:33:33.329Z,13
2018-07-14T01:43:33.300Z,13
2018-07-14T01:53:33.249Z,12
2018-07-14T02:03:33.236Z,15
2018-07-14T02:13:33.227Z,14
2018-07-14T02:23:33.304Z,12
2018-07-14T02:33:33.314Z,14
2018-07-14T02:43:33.159Z,15
2018-07-14T02:53:33.332Z,14
2018-07-14T03:03:33.157Z,16
2018-07-14T03:13:33.432Z,16
2018-07-14T03:23:33.768Z,16
2018-07-14T03:33:33.363Z,14
2018-07-14T03:43:33.270Z,16
2018-07-14T03:53:33.200Z,18
2018-07-14T04:03:33.196Z,17
2018-07-14T04:13:33.253Z,15
2018-07-14T04:23:33.142Z,16
2018-07-14T04:33:33.268Z,16
2018-07-14T04:43:33.296Z,17
2018-07-14T04:53:33.205Z,17
2018-07-14T05:03:33.255Z,15
2018-07-14T05:13:33.263Z,15
2018-07-14T05:23:33.252Z,13
2018-07-14T05:33:33.202Z,13
2018-07-14T05:43:33.269Z,11
2018-07-14T05:53:33.296Z,11
2018-07-14T06:03:33.256Z,11
2018-07-14T06:13:33.255Z,11
2018-07-14T06:23:33.102Z,10
2018-07-14T06:33:33.236Z,9
2018-07-14T06:43:33.250Z,9
2018-07-14T06:53:33.186Z,9
2018-07-14T07:03:33.288Z,8
2018-07-14T07:13:33.285Z,7
2018-07-14T07:23:33.193Z,7
2018-07-14T07:33:51.034Z,7
2018-07-14T07:43:36.654Z,8
2018-07-14T07:53:33.663Z,8
2018-07-14T08:03:33.271Z,7
2018-07-14T08:13:33.239Z,7
2018-07-14T08:23:33.326Z,6
2018-07-14T08:33:33.129Z,7
2018-07-14T08:43:33.223Z,6
2018-07-14T08:53:33.247Z,7
2018-07-14T09:03:33.264Z,7
2018-07-14T09:13:33.219Z,7
2018-07-14T09:23:33.194Z,8
2018-07-14T09:33:33.293Z,9
2018-07-14T09:43:33.251Z,8
2018-07-14T09:53:34.386Z,7
2018-07-14T10:03:49.423Z,8
2018-07-14T10:13:50.931Z,8
2018-07-14T10:23:34.245Z,9
2018-07-14T10:33:33.315Z,10
2018-07-14T10:43:33.207Z,10
2018-07-14T10:53:33.274Z,11
2018-07-14T11:03:33.283Z,10
2018-07-14T11:13:33.178Z,12
2018-07-14T11:23:33.287Z,10
2018-07-14T11:33:33.278Z,8
2018-07-14T11:43:33.293Z,8
2018-07-14T11:53:34.103Z,7
2018-07-14T12:03:33.278Z,7
2018-07-14T12:13:36.289Z,8
2018-07-14T12:23:33.502Z,8
2018-07-14T12:33:33.433Z,7
2018-07-14T12:43:33.327Z,5
2018-07-14T12:53:33.491Z,5
2018-07-14T13:03:33.572Z,6
2018-07-14T13:13:33.566Z,5
2018-07-14T13:23:34.946Z,6
2018-07-14T13:33:33.726Z,5
2018-07-14T13:43:33.357Z,6
2018-07-14T13:53:33.382Z,5
2018-07-14T14:03:33.429Z,5
2018-07-14T14:13:33.742Z,5
2018-07-14T14:23:33.345Z,5
2018-07-14T14:33:33.408Z,5
2018-07-14T14:43:33.423Z,4
2018-07-14T14:53:33.314Z,4
2018-07-14T15:04:30.311Z,5
2018-07-14T15:13:33.349Z,3
2018-07-14T15:23:33.413Z,3
2018-07-14T15:33:33.401Z,4
2018-07-14T15:43:33.306Z,3
2018-07-14T15:53:33.394Z,3
2018-07-14T16:03:33.364Z,8
2018-07-14T16:13:33.631Z,7
2018-07-14T16:23:33.424Z,3
2018-07-14T16:33:33.444Z,9
2018-07-14T16:45:10.297Z,7
2018-07-14T16:54:04.346Z,9
2018-07-14T17:05:16.327Z,2
2018-07-14T17:13:33.312Z,3
2018-07-14T17:23:34.467Z,2
2018-07-14T17:33:33.613Z,3
2018-07-14T17:43:33.607Z,5
2018-07-14T17:53:37.307Z,2
2018-07-14T18:03:33.269Z,2
2018-07-14T18:13:33.430Z,2
2018-07-14T18:23:33.536Z,2
2018-07-14T18:33:33.392Z,2
2018-07-14T18:43:37.771Z,2
2018-07-14T18:53:34.482Z,3
2018-07-14T19:03:33.901Z,2
2018-07-14T19:13:33.586Z,1
2018-07-14T19:23:34.700Z,21
2018-07-14T19:33:33.487Z,3
2018-07-14T19:43:36.533Z,2
2018-07-14T19:53:33.406Z,2
2018-07-14T20:03:33.393Z,3
2018-07-14T20:13:34.908Z,6
2018-07-14T20:23:33.335Z,2
2018-07-14T20:33:33.316Z,2
2018-07-14T20:43:33.268Z,2
2018-07-14T20:53:33.410Z,2
2018-07-14T21:03:33.553Z,3
2018-07-14T21:14:02.829Z,2
2018-07-14T21:23:34.640Z,2
2018-07-14T21:33:33.757Z,3
2018-07-14T21:43:33.666Z,3
2018-07-14T21:53:34.695Z,3
2018-07-14T22:03:33.435Z,3
2018-07-14T22:13:34.184Z,2
2018-07-14T22:23:34.170Z,3
2018-07-14T22:33:33.534Z,3
2018-07-14T22:43:33.987Z,4
2018-07-14T22:53:34.419Z,4
2018-07-14T23:03:33.913Z,5
2018-07-14T23:13:33.804Z,6
2018-07-14T23:23:34.024Z,6
2018-07-14T23:33:33.426Z,6
2018-07-14T23:43:33.847Z,6
2018-07-14T23:53:33.928Z,7
